JST76 CYVR-YSSY
Flight info
| Callsign | JST76 |
|---|---|
| Flight time | N/A |
| Altitude | 34000 |
| Route | PITUT DCT 48N130W 46N135W/N0489F360 44N140W 41N145W 37N150W 31N155W 2600N15750W DCT CHOKO/N0489F370 DCT 1800N16115W/N0492F380 DCT CROBY A579 CUFFY/N0489F400 A579 UBLIN DCT LENRI B580 IFFEY DCT RIKNI N774 TESAT |
| Aircraft | B788/H-SDE1E2E3FGHIJ2J3J4J5M1RWXY/LB1D1 |
Departure
| Time | 2026-05-01 11:28 |
|---|---|
| Airport | Vancouver International Airport (CYVR) |
Arrival
| Time | N/A |
|---|---|
| Airport | Sydney Kingsford Smith International Airport (YSSY) |
| Time | Latitude | Longitude | Altitude | Speed | Heading |
|---|---|---|---|---|---|
| 2026-05-01 10:45 | 49.19922 | -123.18027 | 30 ft | 0 kts | 189° |
| 2026-05-01 11:16 | 49.19943 | -123.18021 | 30 ft | 4 kts | 189° |
| 2026-05-01 11:16 | 49.19969 | -123.18015 | 29 ft | 4 kts | 179° |
| 2026-05-01 11:16 | 49.19992 | -123.18023 | 29 ft | 4 kts | 124° |
| 2026-05-01 11:16 | 49.19998 | -123.18050 | 28 ft | 4 kts | 99° |
| 2026-05-01 11:17 | 49.20001 | -123.18080 | 28 ft | 0 kts | 99° |
| 2026-05-01 11:19 | 49.20001 | -123.18078 | 28 ft | 1 kts | 99° |
| 2026-05-01 11:19 | 49.19996 | -123.18032 | 29 ft | 8 kts | 99° |
| 2026-05-01 11:19 | 49.19985 | -123.17932 | 29 ft | 9 kts | 97° |
| 2026-05-01 11:20 | 49.20002 | -123.17863 | 30 ft | 6 kts | 39° |
| 2026-05-01 11:20 | 49.20033 | -123.17821 | 30 ft | 5 kts | 58° |
| 2026-05-01 11:20 | 49.20038 | -123.17783 | 30 ft | 4 kts | 88° |
| 2026-05-01 11:20 | 49.20035 | -123.17734 | 30 ft | 6 kts | 98° |
| 2026-05-01 11:21 | 49.20027 | -123.17664 | 29 ft | 8 kts | 99° |
| 2026-05-01 11:21 | 49.20017 | -123.17573 | 30 ft | 10 kts | 99° |
| 2026-05-01 11:21 | 49.20004 | -123.17462 | 30 ft | 11 kts | 99° |
| 2026-05-01 11:21 | 49.19990 | -123.17334 | 30 ft | 13 kts | 99° |
| 2026-05-01 11:22 | 49.19973 | -123.17190 | 30 ft | 14 kts | 101° |
| 2026-05-01 11:22 | 49.19954 | -123.17031 | 30 ft | 16 kts | 101° |
| 2026-05-01 11:22 | 49.19934 | -123.16858 | 30 ft | 17 kts | 98° |
| 2026-05-01 11:22 | 49.19917 | -123.16691 | 30 ft | 15 kts | 99° |
| 2026-05-01 11:23 | 49.19900 | -123.16540 | 30 ft | 14 kts | 99° |
| 2026-05-01 11:23 | 49.19885 | -123.16404 | 30 ft | 13 kts | 99° |
| 2026-05-01 11:23 | 49.19870 | -123.16278 | 30 ft | 11 kts | 102° |
| 2026-05-01 11:23 | 49.19854 | -123.16167 | 30 ft | 10 kts | 102° |
| 2026-05-01 11:24 | 49.19842 | -123.16066 | 29 ft | 9 kts | 99° |
| 2026-05-01 11:24 | 49.19831 | -123.15977 | 30 ft | 8 kts | 100° |
| 2026-05-01 11:24 | 49.19859 | -123.15874 | 30 ft | 4 kts | 18° |
| 2026-05-01 11:25 | 49.19882 | -123.15868 | 30 ft | 3 kts | 7° |
| 2026-05-01 11:25 | 49.19943 | -123.15855 | 30 ft | 6 kts | 9° |
| 2026-05-01 11:25 | 49.19986 | -123.15844 | 30 ft | 7 kts | 9° |
| 2026-05-01 11:26 | 49.20028 | -123.15855 | 29 ft | 7 kts | 314° |
| 2026-05-01 11:26 | 49.20049 | -123.15986 | 30 ft | 6 kts | 280° |
| 2026-05-01 11:26 | 49.20064 | -123.16111 | 30 ft | 25 kts | 281° |
| 2026-05-01 11:27 | 49.20120 | -123.16599 | 30 ft | 69 kts | 279° |
| 2026-05-01 11:27 | 49.20221 | -123.17507 | 30 ft | 109 kts | 280° |
| 2026-05-01 11:27 | 49.20376 | -123.18826 | 29 ft | 142 kts | 281° |
| 2026-05-01 11:27 | 49.20560 | -123.20456 | 254 ft | 160 kts | 275° |
| 2026-05-01 11:28 | 49.20728 | -123.22117 | 859 ft | 160 kts | 276° |
| 2026-05-01 11:28 | 49.20908 | -123.23881 | 1272 ft | 180 kts | 277° |
| 2026-05-01 11:28 | 49.20821 | -123.25832 | 1903 ft | 192 kts | 258° |
| 2026-05-01 11:29 | 49.20153 | -123.30359 | 2770 ft | 246 kts | 259° |
| 2026-05-01 11:29 | 49.19850 | -123.33012 | 3418 ft | 261 kts | 260° |
| 2026-05-01 11:29 | 49.19201 | -123.38503 | 5401 ft | 267 kts | 258° |
| 2026-05-01 11:30 | 49.18860 | -123.41315 | 6378 ft | 270 kts | 258° |
| 2026-05-01 11:30 | 49.18519 | -123.44154 | 7269 ft | 274 kts | 258° |
| 2026-05-01 11:30 | 49.18172 | -123.47034 | 8178 ft | 277 kts | 258° |
| 2026-05-01 11:30 | 49.17821 | -123.49946 | 9074 ft | 280 kts | 257° |
| 2026-05-01 11:31 | 49.17464 | -123.52884 | 9551 ft | 285 kts | 257° |
| 2026-05-01 11:31 | 49.17111 | -123.55793 | 10164 ft | 285 kts | 257° |
| 2026-05-01 11:31 | 49.16734 | -123.58882 | 10260 ft | 307 kts | 257° |
| 2026-05-01 11:31 | 49.16328 | -123.62197 | 10292 ft | 329 kts | 257° |
| 2026-05-01 11:32 | 49.15895 | -123.65746 | 10402 ft | 347 kts | 257° |
| 2026-05-01 11:32 | 49.15454 | -123.69369 | 11015 ft | 347 kts | 257° |
| 2026-05-01 11:32 | 49.15005 | -123.73026 | 11542 ft | 351 kts | 257° |
| 2026-05-01 11:32 | 49.14551 | -123.76702 | 12080 ft | 354 kts | 257° |
| 2026-05-01 11:33 | 49.14092 | -123.80407 | 12642 ft | 356 kts | 257° |
| 2026-05-01 11:33 | 49.13629 | -123.84143 | 13166 ft | 360 kts | 257° |
| 2026-05-01 11:33 | 49.13162 | -123.87906 | 13711 ft | 363 kts | 257° |
| 2026-05-01 11:33 | 49.12688 | -123.91709 | 14210 ft | 365 kts | 257° |
| 2026-05-01 11:34 | 49.12210 | -123.95533 | 14689 ft | 368 kts | 257° |
| 2026-05-01 11:34 | 49.11727 | -123.99379 | 15158 ft | 370 kts | 257° |
| 2026-05-01 11:34 | 49.11247 | -124.03198 | 15638 ft | 372 kts | 257° |
| 2026-05-01 11:34 | 49.10756 | -124.07095 | 16122 ft | 375 kts | 257° |
| 2026-05-01 11:35 | 49.10261 | -124.11009 | 16577 ft | 377 kts | 257° |
| 2026-05-01 11:35 | 49.09762 | -124.14952 | 17035 ft | 380 kts | 257° |
| 2026-05-01 11:35 | 49.09257 | -124.18919 | 17497 ft | 382 kts | 257° |
| 2026-05-01 11:35 | 49.08748 | -124.22907 | 17915 ft | 384 kts | 257° |
| 2026-05-01 11:36 | 49.08234 | -124.26927 | 18342 ft | 387 kts | 257° |
| 2026-05-01 11:36 | 49.07717 | -124.30960 | 18723 ft | 389 kts | 257° |
| 2026-05-01 11:36 | 49.07195 | -124.35014 | 19083 ft | 391 kts | 257° |
| 2026-05-01 11:36 | 49.06668 | -124.39098 | 19496 ft | 392 kts | 257° |
| 2026-05-01 11:37 | 49.06140 | -124.43177 | 19876 ft | 394 kts | 257° |
| 2026-05-01 11:37 | 49.05616 | -124.47214 | 20228 ft | 396 kts | 257° |
| 2026-05-01 11:37 | 49.05260 | -124.49950 | 20441 ft | 397 kts | 257° |
| 2026-05-01 11:37 | 49.04720 | -124.54089 | 20821 ft | 398 kts | 257° |
| 2026-05-01 11:38 | 49.04000 | -124.59590 | 21298 ft | 401 kts | 257° |
| 2026-05-01 11:38 | 49.03452 | -124.63763 | 21639 ft | 402 kts | 257° |
| 2026-05-01 11:38 | 49.02899 | -124.67960 | 21986 ft | 404 kts | 257° |
| 2026-05-01 11:38 | 49.02344 | -124.72164 | 22335 ft | 405 kts | 257° |
| 2026-05-01 11:39 | 49.01783 | -124.76391 | 22661 ft | 408 kts | 257° |
| 2026-05-01 11:39 | 49.01220 | -124.80634 | 22986 ft | 409 kts | 257° |
| 2026-05-01 11:39 | 49.00652 | -124.84892 | 23306 ft | 411 kts | 257° |
| 2026-05-01 11:39 | 49.00274 | -124.87723 | 23509 ft | 412 kts | 257° |
| 2026-05-01 11:40 | 48.99699 | -124.92008 | 23778 ft | 414 kts | 257° |
| 2026-05-01 11:40 | 48.99121 | -124.96313 | 24048 ft | 415 kts | 257° |
| 2026-05-01 11:40 | 48.98540 | -125.00622 | 24311 ft | 416 kts | 257° |
| 2026-05-01 11:40 | 48.97766 | -125.06346 | 24656 ft | 417 kts | 257° |
| 2026-05-01 11:41 | 48.97177 | -125.10682 | 24906 ft | 418 kts | 257° |
| 2026-05-01 11:41 | 48.96586 | -125.15030 | 25145 ft | 420 kts | 257° |
| 2026-05-01 11:41 | 48.96193 | -125.17912 | 25300 ft | 421 kts | 257° |
| 2026-05-01 11:41 | 48.95595 | -125.22281 | 25558 ft | 421 kts | 257° |
| 2026-05-01 11:42 | 48.94995 | -125.26650 | 25799 ft | 422 kts | 257° |
| 2026-05-01 11:42 | 48.94393 | -125.31024 | 26032 ft | 424 kts | 256° |
| 2026-05-01 11:42 | 48.93581 | -125.36903 | 26349 ft | 425 kts | 256° |
| 2026-05-01 11:42 | 48.93176 | -125.39828 | 26515 ft | 426 kts | 256° |
| 2026-05-01 11:43 | 48.92563 | -125.44245 | 26751 ft | 427 kts | 256° |
| 2026-05-01 11:43 | 48.91945 | -125.48680 | 26984 ft | 428 kts | 256° |
| 2026-05-01 11:43 | 48.91326 | -125.53109 | 27231 ft | 429 kts | 256° |
| 2026-05-01 11:44 | 48.90076 | -125.62015 | 27707 ft | 431 kts | 256° |
| 2026-05-01 11:44 | 48.89454 | -125.66426 | 27936 ft | 433 kts | 256° |
| 2026-05-01 11:44 | 48.88822 | -125.70899 | 28171 ft | 434 kts | 256° |
| 2026-05-01 11:44 | 48.88185 | -125.75392 | 28427 ft | 435 kts | 256° |
| 2026-05-01 11:45 | 48.87546 | -125.79886 | 28647 ft | 436 kts | 256° |
| 2026-05-01 11:45 | 48.86901 | -125.84403 | 28894 ft | 437 kts | 256° |
| 2026-05-01 11:45 | 48.86255 | -125.88916 | 29117 ft | 439 kts | 256° |
| 2026-05-01 11:45 | 48.85605 | -125.93452 | 29355 ft | 440 kts | 256° |
| 2026-05-01 11:46 | 48.84950 | -125.97999 | 29584 ft | 441 kts | 256° |
| 2026-05-01 11:46 | 48.84290 | -126.02568 | 29803 ft | 443 kts | 256° |
| 2026-05-01 11:46 | 48.83628 | -126.07141 | 30034 ft | 444 kts | 256° |
| 2026-05-01 11:46 | 48.82971 | -126.11667 | 30244 ft | 445 kts | 256° |
| 2026-05-01 11:47 | 48.82300 | -126.16272 | 30435 ft | 447 kts | 256° |
| 2026-05-01 11:47 | 48.81628 | -126.20870 | 30631 ft | 448 kts | 256° |
| 2026-05-01 11:47 | 48.80951 | -126.25492 | 30832 ft | 449 kts | 255° |
| 2026-05-01 11:47 | 48.80270 | -126.30124 | 31022 ft | 450 kts | 255° |
| 2026-05-01 11:48 | 48.79586 | -126.34762 | 31227 ft | 451 kts | 255° |
| 2026-05-01 11:48 | 48.78898 | -126.39415 | 31412 ft | 453 kts | 255° |
| 2026-05-01 11:48 | 48.78206 | -126.44079 | 31605 ft | 454 kts | 255° |
| 2026-05-01 11:48 | 48.77511 | -126.48753 | 31803 ft | 455 kts | 255° |
| 2026-05-01 11:49 | 48.76812 | -126.53436 | 31984 ft | 456 kts | 255° |
| 2026-05-01 11:49 | 48.76107 | -126.58144 | 32173 ft | 457 kts | 255° |
| 2026-05-01 11:49 | 48.75402 | -126.62846 | 32376 ft | 458 kts | 255° |
| 2026-05-01 11:49 | 48.74689 | -126.67577 | 32562 ft | 460 kts | 255° |
| 2026-05-01 11:50 | 48.73975 | -126.72305 | 32745 ft | 461 kts | 254° |
| 2026-05-01 11:50 | 48.73267 | -126.76982 | 32932 ft | 462 kts | 254° |
| 2026-05-01 11:50 | 48.72545 | -126.81732 | 33107 ft | 463 kts | 254° |
| 2026-05-01 11:50 | 48.71820 | -126.86490 | 33308 ft | 464 kts | 254° |
| 2026-05-01 11:51 | 48.71092 | -126.91254 | 33481 ft | 465 kts | 254° |
| 2026-05-01 11:51 | 48.70360 | -126.96030 | 33684 ft | 466 kts | 254° |
| 2026-05-01 11:51 | 48.69628 | -127.00799 | 33952 ft | 464 kts | 253° |
| 2026-05-01 11:51 | 48.68895 | -127.05552 | 34133 ft | 465 kts | 253° |
| 2026-05-01 11:52 | 48.67413 | -127.15114 | 34137 ft | 465 kts | 253° |
| 2026-05-01 11:52 | 48.65935 | -127.24609 | 34134 ft | 461 kts | 253° |
| 2026-05-01 11:53 | 48.64458 | -127.34030 | 34148 ft | 460 kts | 253° |
| 2026-05-01 11:53 | 48.62976 | -127.43433 | 34151 ft | 458 kts | 253° |
| 2026-05-01 11:54 | 48.61501 | -127.52733 | 34160 ft | 458 kts | 253° |
| 2026-05-01 11:54 | 48.60010 | -127.62094 | 34163 ft | 458 kts | 253° |
| 2026-05-01 11:55 | 48.58510 | -127.71444 | 34167 ft | 458 kts | 253° |
| 2026-05-01 11:55 | 48.57004 | -127.80788 | 34170 ft | 457 kts | 253° |
| 2026-05-01 11:56 | 48.55490 | -127.90125 | 34176 ft | 457 kts | 252° |
| 2026-05-01 11:56 | 48.53981 | -127.99381 | 34181 ft | 458 kts | 252° |
| 2026-05-01 11:57 | 48.51998 | -128.08457 | 34180 ft | 455 kts | 245° |
| 2026-05-01 11:57 | 48.49679 | -128.17355 | 34186 ft | 456 kts | 245° |
| 2026-05-01 11:58 | 48.47367 | -128.26175 | 34192 ft | 456 kts | 245° |
| 2026-05-01 11:59 | 48.43856 | -128.39517 | 34191 ft | 457 kts | 245° |
| 2026-05-01 11:59 | 48.41503 | -128.48409 | 34195 ft | 457 kts | 245° |
| 2026-05-01 12:00 | 48.37955 | -128.61758 | 34204 ft | 458 kts | 245° |
| 2026-05-01 12:01 | 48.34398 | -128.75064 | 34210 ft | 458 kts | 244° |
| 2026-05-01 12:01 | 48.32012 | -128.83947 | 34206 ft | 459 kts | 244° |
| 2026-05-01 12:02 | 48.29615 | -128.92837 | 34211 ft | 459 kts | 244° |
| 2026-05-01 12:02 | 48.27209 | -129.01727 | 34215 ft | 460 kts | 244° |
| 2026-05-01 12:03 | 48.24792 | -129.10624 | 34214 ft | 460 kts | 244° |
| 2026-05-01 12:03 | 48.22369 | -129.19510 | 34219 ft | 460 kts | 244° |
| 2026-05-01 12:04 | 48.19949 | -129.28351 | 34219 ft | 461 kts | 244° |
| 2026-05-01 12:04 | 48.17503 | -129.37253 | 34219 ft | 462 kts | 244° |
| 2026-05-01 12:05 | 48.15043 | -129.46172 | 34217 ft | 463 kts | 244° |
| 2026-05-01 12:05 | 48.11338 | -129.59542 | 34226 ft | 464 kts | 244° |
| 2026-05-01 12:06 | 48.08856 | -129.68456 | 34233 ft | 464 kts | 244° |
| 2026-05-01 12:06 | 48.06366 | -129.77369 | 34234 ft | 465 kts | 244° |
| 2026-05-01 12:07 | 48.03881 | -129.86227 | 34234 ft | 465 kts | 244° |
| 2026-05-01 12:07 | 48.01366 | -129.95162 | 34234 ft | 465 kts | 244° |
| 2026-05-01 12:08 | 47.98628 | -130.03755 | 34228 ft | 463 kts | 238° |
| 2026-05-01 12:08 | 47.95545 | -130.12213 | 34242 ft | 464 kts | 238° |
| 2026-05-01 12:09 | 47.92469 | -130.20610 | 34240 ft | 465 kts | 238° |
| 2026-05-01 12:09 | 47.89361 | -130.29067 | 34245 ft | 465 kts | 238° |
| 2026-05-01 12:10 | 47.84682 | -130.41748 | 34248 ft | 466 kts | 238° |
| 2026-05-01 12:11 | 47.79976 | -130.54446 | 34246 ft | 467 kts | 238° |
| 2026-05-01 12:11 | 47.76827 | -130.62907 | 34241 ft | 467 kts | 238° |
| 2026-05-01 12:12 | 47.73670 | -130.71364 | 34246 ft | 467 kts | 238° |
| 2026-05-01 12:12 | 47.70507 | -130.79808 | 34250 ft | 468 kts | 238° |
| 2026-05-01 12:13 | 47.67354 | -130.88201 | 34239 ft | 468 kts | 238° |
| 2026-05-01 12:13 | 47.64172 | -130.96642 | 34248 ft | 469 kts | 238° |
| 2026-05-01 12:14 | 47.60976 | -131.05095 | 34245 ft | 470 kts | 238° |
| 2026-05-01 12:14 | 47.57772 | -131.13543 | 34243 ft | 471 kts | 238° |
| 2026-05-01 12:15 | 47.54553 | -131.22001 | 34239 ft | 471 kts | 238° |
| 2026-05-01 12:15 | 47.51328 | -131.30451 | 34239 ft | 472 kts | 239° |
| 2026-05-01 12:16 | 47.48101 | -131.38877 | 34239 ft | 472 kts | 239° |
| 2026-05-01 12:16 | 47.44855 | -131.47327 | 34241 ft | 472 kts | 239° |
| 2026-05-01 12:17 | 47.41623 | -131.55715 | 34242 ft | 473 kts | 239° |
| 2026-05-01 12:17 | 47.38362 | -131.64152 | 34235 ft | 473 kts | 239° |
| 2026-05-01 12:18 | 47.35090 | -131.72591 | 34235 ft | 474 kts | 239° |
| 2026-05-01 12:18 | 47.31813 | -131.81016 | 34239 ft | 473 kts | 239° |
| 2026-05-01 12:19 | 47.28529 | -131.89432 | 34238 ft | 473 kts | 239° |
| 2026-05-01 12:19 | 47.25258 | -131.97789 | 34235 ft | 474 kts | 240° |
| 2026-05-01 12:20 | 47.21958 | -132.06195 | 34236 ft | 475 kts | 240° |
| 2026-05-01 12:20 | 47.18644 | -132.14610 | 34236 ft | 475 kts | 240° |
| 2026-05-01 12:21 | 47.15323 | -132.23015 | 34235 ft | 476 kts | 240° |
| 2026-05-01 12:21 | 47.11990 | -132.31426 | 34231 ft | 477 kts | 240° |
| 2026-05-01 12:22 | 47.08672 | -132.39774 | 34234 ft | 478 kts | 240° |
| 2026-05-01 12:22 | 47.05308 | -132.48210 | 34234 ft | 478 kts | 240° |
| 2026-05-01 12:23 | 47.01939 | -132.56635 | 34236 ft | 479 kts | 240° |
| 2026-05-01 12:23 | 46.98557 | -132.65062 | 34235 ft | 479 kts | 240° |
| 2026-05-01 12:24 | 46.95166 | -132.73490 | 34233 ft | 480 kts | 241° |
| 2026-05-01 12:24 | 46.91769 | -132.81904 | 34235 ft | 480 kts | 241° |
| 2026-05-01 12:25 | 46.86675 | -132.94474 | 34236 ft | 481 kts | 241° |
| 2026-05-01 12:26 | 46.83254 | -133.02883 | 34238 ft | 481 kts | 241° |
| 2026-05-01 12:26 | 46.78173 | -133.15324 | 34239 ft | 482 kts | 241° |
| 2026-05-01 12:27 | 46.73008 | -133.27913 | 34231 ft | 482 kts | 241° |
| 2026-05-01 12:28 | 46.67825 | -133.40490 | 34239 ft | 483 kts | 241° |
| 2026-05-01 12:29 | 46.62641 | -133.53012 | 34233 ft | 483 kts | 242° |
| 2026-05-01 12:29 | 46.57423 | -133.65559 | 34236 ft | 483 kts | 242° |
| 2026-05-01 12:30 | 46.52779 | -133.76676 | 34235 ft | 483 kts | 242° |
| 2026-05-01 12:31 | 46.49285 | -133.85013 | 34240 ft | 484 kts | 242° |
| 2026-05-01 12:31 | 46.45776 | -133.93358 | 34243 ft | 484 kts | 242° |
| 2026-05-01 12:32 | 46.42256 | -134.01707 | 34245 ft | 485 kts | 242° |
| 2026-05-01 12:32 | 46.37055 | -134.13994 | 34250 ft | 486 kts | 242° |
| 2026-05-01 12:33 | 46.33571 | -134.22194 | 34252 ft | 487 kts | 242° |
| 2026-05-01 12:33 | 46.30010 | -134.30552 | 34262 ft | 488 kts | 242° |
| 2026-05-01 12:34 | 46.26473 | -134.38828 | 34261 ft | 489 kts | 242° |
| 2026-05-01 12:34 | 46.22907 | -134.47147 | 34266 ft | 490 kts | 242° |
| 2026-05-01 12:35 | 46.19309 | -134.55514 | 34264 ft | 490 kts | 242° |
| 2026-05-01 12:35 | 46.15706 | -134.63869 | 34270 ft | 491 kts | 242° |
| 2026-05-01 12:36 | 46.12093 | -134.72222 | 34274 ft | 491 kts | 242° |
| 2026-05-01 12:36 | 46.08470 | -134.80574 | 34289 ft | 492 kts | 242° |
| 2026-05-01 12:37 | 46.04897 | -134.88786 | 34288 ft | 492 kts | 242° |
| 2026-05-01 12:37 | 46.01252 | -134.97136 | 34292 ft | 492 kts | 242° |
| 2026-05-01 12:38 | 45.97933 | -135.05650 | 34309 ft | 490 kts | 247° |
| 2026-05-01 12:38 | 45.94752 | -135.14353 | 34305 ft | 492 kts | 247° |
| 2026-05-01 12:39 | 45.91554 | -135.23043 | 34310 ft | 492 kts | 247° |
| 2026-05-01 12:39 | 45.88346 | -135.31757 | 34307 ft | 493 kts | 247° |
| 2026-05-01 12:40 | 45.85148 | -135.40399 | 34309 ft | 494 kts | 247° |
| 2026-05-01 12:40 | 45.81919 | -135.49107 | 34314 ft | 494 kts | 248° |
| 2026-05-01 12:41 | 45.78676 | -135.57819 | 34316 ft | 495 kts | 248° |
| 2026-05-01 12:41 | 45.75430 | -135.66515 | 34323 ft | 495 kts | 248° |
| 2026-05-01 12:42 | 45.72193 | -135.75157 | 34323 ft | 495 kts | 248° |
| 2026-05-01 12:42 | 45.68928 | -135.83846 | 34332 ft | 495 kts | 248° |
| 2026-05-01 12:43 | 45.65659 | -135.92519 | 34335 ft | 495 kts | 248° |
| 2026-05-01 12:43 | 45.62381 | -136.01190 | 34337 ft | 495 kts | 248° |
| 2026-05-01 12:44 | 45.59098 | -136.09844 | 34344 ft | 495 kts | 248° |
| 2026-05-01 12:45 | 45.52516 | -136.27114 | 34351 ft | 497 kts | 248° |
| 2026-05-01 12:45 | 45.49202 | -136.35767 | 34352 ft | 497 kts | 249° |
| 2026-05-01 12:46 | 45.45882 | -136.44413 | 34350 ft | 497 kts | 249° |
| 2026-05-01 12:46 | 45.42550 | -136.53060 | 34357 ft | 498 kts | 249° |
| 2026-05-01 12:47 | 45.39198 | -136.61731 | 34365 ft | 499 kts | 249° |
| 2026-05-01 12:47 | 45.35861 | -136.70337 | 34373 ft | 500 kts | 249° |
| 2026-05-01 12:48 | 45.32492 | -136.78997 | 34376 ft | 501 kts | 249° |
| 2026-05-01 12:48 | 45.29111 | -136.87663 | 34376 ft | 502 kts | 249° |
| 2026-05-01 12:49 | 45.25714 | -136.96341 | 34377 ft | 503 kts | 250° |
| 2026-05-01 12:49 | 45.22308 | -137.05014 | 34382 ft | 503 kts | 250° |
| 2026-05-01 12:50 | 45.18889 | -137.13697 | 34381 ft | 504 kts | 250° |
| 2026-05-01 12:50 | 45.15481 | -137.22322 | 34390 ft | 505 kts | 250° |
| 2026-05-01 12:51 | 45.12039 | -137.31005 | 34390 ft | 506 kts | 250° |
| 2026-05-01 12:52 | 45.06852 | -137.44043 | 34397 ft | 507 kts | 250° |
| 2026-05-01 12:52 | 45.01635 | -137.57094 | 34403 ft | 508 kts | 250° |
| 2026-05-01 12:53 | 44.96403 | -137.70120 | 34401 ft | 508 kts | 250° |
| 2026-05-01 12:54 | 44.92922 | -137.78754 | 34405 ft | 509 kts | 250° |
| 2026-05-01 12:54 | 44.87651 | -137.91778 | 34410 ft | 510 kts | 251° |
| 2026-05-01 12:55 | 44.82358 | -138.04796 | 34430 ft | 510 kts | 251° |
| 2026-05-01 12:56 | 44.78817 | -138.13472 | 34426 ft | 510 kts | 251° |
| 2026-05-01 12:56 | 44.75292 | -138.22079 | 34420 ft | 511 kts | 251° |
| 2026-05-01 12:57 | 44.71734 | -138.30744 | 34424 ft | 511 kts | 251° |
| 2026-05-01 12:57 | 44.66388 | -138.43710 | 34428 ft | 511 kts | 251° |
| 2026-05-01 12:58 | 44.62813 | -138.52350 | 34433 ft | 511 kts | 251° |
| 2026-05-01 12:59 | 44.57439 | -138.65284 | 34431 ft | 511 kts | 251° |
| 2026-05-01 12:59 | 44.52070 | -138.78149 | 34443 ft | 511 kts | 251° |
| 2026-05-01 13:00 | 44.46672 | -138.91026 | 34443 ft | 511 kts | 251° |
| 2026-05-01 13:01 | 44.41263 | -139.03870 | 34448 ft | 511 kts | 250° |
| 2026-05-01 13:02 | 44.35839 | -139.16692 | 34443 ft | 510 kts | 250° |
| 2026-05-01 13:07 | 43.95081 | -140.08914 | 34476 ft | 515 kts | 242° |
| 2026-05-01 13:08 | 43.90708 | -140.16835 | 34469 ft | 516 kts | 242° |
| 2026-05-01 13:08 | 43.86388 | -140.24618 | 34468 ft | 515 kts | 242° |
| 2026-05-01 13:09 | 43.82010 | -140.32498 | 34471 ft | 515 kts | 242° |
| 2026-05-01 13:09 | 43.77628 | -140.40355 | 34472 ft | 515 kts | 242° |
| 2026-05-01 13:10 | 43.73247 | -140.48194 | 34485 ft | 514 kts | 242° |
| 2026-05-01 13:10 | 43.68886 | -140.55976 | 34472 ft | 514 kts | 242° |
| 2026-05-01 13:11 | 43.64500 | -140.63778 | 34474 ft | 514 kts | 242° |
| 2026-05-01 13:11 | 43.60163 | -140.71477 | 34484 ft | 514 kts | 242° |
| 2026-05-01 13:12 | 43.55771 | -140.79251 | 34471 ft | 513 kts | 242° |
| 2026-05-01 13:12 | 43.51377 | -140.87009 | 34480 ft | 513 kts | 241° |
| 2026-05-01 13:13 | 43.46975 | -140.94758 | 34477 ft | 513 kts | 241° |
| 2026-05-01 13:13 | 43.42637 | -141.02377 | 34478 ft | 513 kts | 241° |
| 2026-05-01 13:14 | 43.38226 | -141.10103 | 34482 ft | 512 kts | 241° |
| 2026-05-01 13:14 | 43.34564 | -141.16502 | 34479 ft | 512 kts | 241° |
| 2026-05-01 13:15 | 43.29433 | -141.25443 | 34485 ft | 512 kts | 241° |
| 2026-05-01 13:15 | 43.25799 | -141.31760 | 34488 ft | 512 kts | 241° |
| 2026-05-01 13:16 | 43.21404 | -141.39382 | 34483 ft | 512 kts | 240° |
| 2026-05-01 13:16 | 43.16971 | -141.47049 | 34491 ft | 512 kts | 240° |
| 2026-05-01 13:17 | 43.08089 | -141.62352 | 34487 ft | 513 kts | 240° |
| 2026-05-01 13:18 | 43.01415 | -141.73797 | 34484 ft | 513 kts | 240° |
| 2026-05-01 13:18 | 42.96984 | -141.81372 | 34487 ft | 513 kts | 240° |
| 2026-05-01 13:19 | 42.92528 | -141.88970 | 34486 ft | 512 kts | 240° |
| 2026-05-01 13:20 | 42.85823 | -142.00367 | 34493 ft | 512 kts | 240° |
| 2026-05-01 13:20 | 42.81372 | -142.07907 | 34486 ft | 512 kts | 240° |
| 2026-05-01 13:21 | 42.74696 | -142.19183 | 34487 ft | 512 kts | 240° |
| 2026-05-01 13:21 | 42.70211 | -142.26732 | 34487 ft | 512 kts | 240° |
| 2026-05-01 13:22 | 42.65736 | -142.34247 | 34489 ft | 511 kts | 240° |
| 2026-05-01 13:22 | 42.61383 | -142.41538 | 34491 ft | 511 kts | 239° |
| 2026-05-01 13:23 | 42.56905 | -142.49020 | 34498 ft | 510 kts | 239° |
| 2026-05-01 13:23 | 42.52456 | -142.56435 | 34495 ft | 510 kts | 239° |
| 2026-05-01 13:24 | 42.47976 | -142.63882 | 34498 ft | 509 kts | 239° |
| 2026-05-01 13:25 | 42.41267 | -142.75001 | 34495 ft | 509 kts | 239° |
| 2026-05-01 13:25 | 42.36783 | -142.82409 | 34494 ft | 509 kts | 239° |
| 2026-05-01 13:26 | 42.32295 | -142.89806 | 34496 ft | 509 kts | 239° |
| 2026-05-01 13:26 | 42.27805 | -142.97187 | 34500 ft | 509 kts | 239° |
| 2026-05-01 13:27 | 42.23338 | -143.04513 | 34497 ft | 509 kts | 238° |
| 2026-05-01 13:27 | 42.16574 | -143.15570 | 34500 ft | 508 kts | 238° |
| 2026-05-01 13:28 | 42.09813 | -143.26583 | 34491 ft | 508 kts | 238° |
| 2026-05-01 13:29 | 42.00817 | -143.41172 | 34505 ft | 507 kts | 238° |
| 2026-05-01 13:31 | 41.87282 | -143.62991 | 34503 ft | 507 kts | 238° |
| 2026-05-01 13:32 | 41.76010 | -143.81039 | 34497 ft | 507 kts | 237° |
| 2026-05-01 13:33 | 41.64635 | -143.99144 | 34500 ft | 508 kts | 237° |
| 2026-05-01 13:34 | 41.55523 | -144.13569 | 34494 ft | 508 kts | 237° |
| 2026-05-01 13:35 | 41.48701 | -144.24322 | 34500 ft | 508 kts | 237° |
| 2026-05-01 13:36 | 41.41839 | -144.35102 | 34497 ft | 508 kts | 237° |
| 2026-05-01 13:36 | 41.34966 | -144.45859 | 34505 ft | 508 kts | 237° |
| 2026-05-01 13:37 | 41.30420 | -144.52953 | 34497 ft | 509 kts | 236° |
| 2026-05-01 13:37 | 41.25870 | -144.60035 | 34502 ft | 509 kts | 236° |
| 2026-05-01 13:38 | 41.18995 | -144.70708 | 34494 ft | 509 kts | 236° |
| 2026-05-01 13:39 | 41.14410 | -144.77804 | 34493 ft | 509 kts | 236° |
| 2026-05-01 13:39 | 41.09810 | -144.84907 | 34495 ft | 509 kts | 236° |
| 2026-05-01 13:40 | 41.05192 | -144.92021 | 34497 ft | 509 kts | 236° |
| 2026-05-01 13:40 | 41.00596 | -144.99084 | 34495 ft | 509 kts | 236° |
| 2026-05-01 13:41 | 40.95666 | -145.05887 | 34512 ft | 512 kts | 232° |
| 2026-05-01 13:41 | 40.90763 | -145.12547 | 34508 ft | 512 kts | 232° |
| 2026-05-01 13:42 | 40.85769 | -145.19304 | 34506 ft | 512 kts | 232° |
| 2026-05-01 13:42 | 40.80829 | -145.25977 | 34498 ft | 512 kts | 232° |
| 2026-05-01 13:43 | 40.75839 | -145.32701 | 34496 ft | 512 kts | 232° |
| 2026-05-01 13:43 | 40.70878 | -145.39370 | 34498 ft | 512 kts | 231° |
| 2026-05-01 13:44 | 40.65885 | -145.46069 | 34496 ft | 512 kts | 231° |
| 2026-05-01 13:44 | 40.60890 | -145.52754 | 34495 ft | 511 kts | 231° |
| 2026-05-01 13:45 | 40.55890 | -145.59431 | 34499 ft | 511 kts | 231° |
| 2026-05-01 13:45 | 40.50922 | -145.66050 | 34498 ft | 511 kts | 231° |
| 2026-05-01 13:46 | 40.45919 | -145.72701 | 34499 ft | 511 kts | 231° |
| 2026-05-01 13:46 | 40.40936 | -145.79311 | 34498 ft | 511 kts | 231° |
| 2026-05-01 13:47 | 40.35923 | -145.85944 | 34497 ft | 511 kts | 231° |
| 2026-05-01 13:47 | 40.30932 | -145.92534 | 34496 ft | 510 kts | 231° |
| 2026-05-01 13:48 | 40.25954 | -145.99093 | 34499 ft | 510 kts | 231° |
| 2026-05-01 13:48 | 40.21079 | -146.05503 | 34503 ft | 510 kts | 230° |
| 2026-05-01 13:49 | 40.16056 | -146.12091 | 34500 ft | 510 kts | 230° |
| 2026-05-01 13:49 | 40.11108 | -146.18567 | 34496 ft | 510 kts | 230° |
| 2026-05-01 13:50 | 40.06091 | -146.25119 | 34500 ft | 510 kts | 230° |
| 2026-05-01 13:50 | 40.01132 | -146.31582 | 34494 ft | 510 kts | 230° |
| 2026-05-01 13:51 | 39.96109 | -146.38113 | 34496 ft | 510 kts | 230° |
| 2026-05-01 13:51 | 39.91163 | -146.44530 | 34496 ft | 511 kts | 230° |
| 2026-05-01 13:52 | 39.86115 | -146.51065 | 34496 ft | 511 kts | 230° |
| 2026-05-01 13:52 | 39.81203 | -146.57410 | 34491 ft | 510 kts | 230° |
| 2026-05-01 13:53 | 39.76147 | -146.63928 | 34502 ft | 511 kts | 230° |
| 2026-05-01 13:53 | 39.68558 | -146.73684 | 34498 ft | 511 kts | 230° |
| 2026-05-01 13:54 | 39.63525 | -146.80137 | 34499 ft | 511 kts | 230° |
| 2026-05-01 13:54 | 39.58458 | -146.86617 | 34500 ft | 511 kts | 229° |
| 2026-05-01 13:55 | 39.53396 | -146.93079 | 34500 ft | 511 kts | 229° |
| 2026-05-01 13:55 | 39.48451 | -146.99377 | 34496 ft | 510 kts | 229° |
| 2026-05-01 13:56 | 39.43385 | -147.05816 | 34499 ft | 510 kts | 229° |
| 2026-05-01 13:56 | 39.38347 | -147.12207 | 34501 ft | 510 kts | 229° |
| 2026-05-01 13:57 | 39.34096 | -147.17587 | 34499 ft | 510 kts | 229° |
| 2026-05-01 13:57 | 39.28199 | -147.25035 | 34499 ft | 510 kts | 229° |
| 2026-05-01 13:58 | 39.23114 | -147.31444 | 34497 ft | 511 kts | 229° |
| 2026-05-01 13:58 | 39.18020 | -147.37849 | 34495 ft | 511 kts | 229° |
| 2026-05-01 13:59 | 39.12923 | -147.44245 | 34495 ft | 511 kts | 229° |
| 2026-05-01 13:59 | 39.07847 | -147.50600 | 34499 ft | 511 kts | 229° |
| 2026-05-01 14:00 | 39.02745 | -147.56975 | 34497 ft | 511 kts | 228° |
| 2026-05-01 14:00 | 38.97636 | -147.63345 | 34489 ft | 511 kts | 228° |
| 2026-05-01 14:01 | 38.92526 | -147.69703 | 34491 ft | 511 kts | 228° |
| 2026-05-01 14:01 | 38.87457 | -147.75997 | 34486 ft | 511 kts | 228° |
| 2026-05-01 14:02 | 38.82343 | -147.82333 | 34486 ft | 511 kts | 228° |
| 2026-05-01 14:02 | 38.78089 | -147.87592 | 34486 ft | 511 kts | 228° |
| 2026-05-01 14:03 | 38.72103 | -147.94980 | 34485 ft | 511 kts | 227° |
| 2026-05-01 14:03 | 38.66976 | -148.01291 | 34484 ft | 511 kts | 227° |
| 2026-05-01 14:04 | 38.61880 | -148.07553 | 34483 ft | 511 kts | 227° |
| 2026-05-01 14:04 | 38.57609 | -148.12790 | 34495 ft | 510 kts | 227° |
| 2026-05-01 14:05 | 38.51667 | -148.20061 | 34490 ft | 509 kts | 227° |
| 2026-05-01 14:05 | 38.46554 | -148.26305 | 34492 ft | 509 kts | 227° |
| 2026-05-01 14:06 | 38.42296 | -148.31493 | 34487 ft | 509 kts | 227° |
| 2026-05-01 14:06 | 38.37165 | -148.37734 | 34494 ft | 509 kts | 227° |
| 2026-05-01 14:07 | 38.32025 | -148.43974 | 34488 ft | 511 kts | 227° |
| 2026-05-01 14:08 | 38.24284 | -148.53345 | 34485 ft | 511 kts | 226° |
| 2026-05-01 14:08 | 38.19164 | -148.59529 | 34495 ft | 511 kts | 226° |
| 2026-05-01 14:09 | 38.14002 | -148.65750 | 34482 ft | 510 kts | 226° |
| 2026-05-01 14:09 | 38.08854 | -148.71942 | 34478 ft | 510 kts | 226° |
| 2026-05-01 14:10 | 38.03698 | -148.78130 | 34480 ft | 510 kts | 226° |
| 2026-05-01 14:10 | 37.98544 | -148.84304 | 34476 ft | 510 kts | 226° |
| 2026-05-01 14:11 | 37.93409 | -148.90442 | 34478 ft | 510 kts | 226° |
| 2026-05-01 14:11 | 37.85651 | -148.99692 | 34474 ft | 510 kts | 226° |
| 2026-05-01 14:12 | 37.80476 | -149.05847 | 34477 ft | 510 kts | 226° |
| 2026-05-01 14:12 | 37.75293 | -149.12000 | 34471 ft | 510 kts | 225° |
| 2026-05-01 14:13 | 37.70115 | -149.18132 | 34475 ft | 510 kts | 225° |
| 2026-05-01 14:13 | 37.64955 | -149.24233 | 34474 ft | 510 kts | 225° |
| 2026-05-01 14:14 | 37.59756 | -149.30367 | 34478 ft | 510 kts | 225° |
| 2026-05-01 14:14 | 37.54566 | -149.36478 | 34473 ft | 511 kts | 225° |
| 2026-05-01 14:15 | 37.49358 | -149.42598 | 34473 ft | 511 kts | 225° |
| 2026-05-01 14:15 | 37.44190 | -149.48658 | 34472 ft | 511 kts | 225° |
| 2026-05-01 14:16 | 37.38991 | -149.54744 | 34471 ft | 510 kts | 225° |
| 2026-05-01 14:16 | 37.33786 | -149.60824 | 34477 ft | 510 kts | 225° |
| 2026-05-01 14:17 | 37.28606 | -149.66863 | 34471 ft | 510 kts | 225° |
| 2026-05-01 14:17 | 37.23497 | -149.72807 | 34467 ft | 511 kts | 225° |
| 2026-05-01 14:18 | 37.18275 | -149.78871 | 34471 ft | 512 kts | 225° |
| 2026-05-01 14:18 | 37.13923 | -149.83915 | 34466 ft | 512 kts | 225° |
| 2026-05-01 14:19 | 37.07808 | -149.90990 | 34467 ft | 511 kts | 225° |
| 2026-05-01 14:19 | 37.02580 | -149.97026 | 34463 ft | 511 kts | 224° |
| 2026-05-01 14:20 | 36.94230 | -150.05264 | 34478 ft | 513 kts | 217° |
| 2026-05-01 14:21 | 36.88440 | -150.10515 | 34471 ft | 514 kts | 218° |
| 2026-05-01 14:21 | 36.82667 | -150.15768 | 34469 ft | 513 kts | 217° |
| 2026-05-01 14:22 | 36.73985 | -150.23625 | 34466 ft | 513 kts | 217° |
| 2026-05-01 14:22 | 36.68199 | -150.28850 | 34465 ft | 513 kts | 217° |
| 2026-05-01 14:23 | 36.62452 | -150.34033 | 34466 ft | 514 kts | 217° |
| 2026-05-01 14:23 | 36.56651 | -150.39254 | 34463 ft | 514 kts | 217° |
| 2026-05-01 14:24 | 36.50838 | -150.44475 | 34460 ft | 514 kts | 217° |
| 2026-05-01 14:24 | 36.45071 | -150.49645 | 34459 ft | 514 kts | 217° |
| 2026-05-01 14:25 | 36.39264 | -150.54841 | 34456 ft | 514 kts | 217° |
| 2026-05-01 14:25 | 36.33470 | -150.60017 | 34447 ft | 514 kts | 217° |
| 2026-05-01 14:26 | 36.24762 | -150.67777 | 34450 ft | 514 kts | 217° |
| 2026-05-01 14:27 | 36.18941 | -150.72952 | 34446 ft | 514 kts | 217° |
| 2026-05-01 14:27 | 36.13161 | -150.78080 | 34447 ft | 514 kts | 217° |
| 2026-05-01 14:28 | 36.04423 | -150.85816 | 34442 ft | 515 kts | 216° |
| 2026-05-01 14:28 | 35.98582 | -150.90975 | 34442 ft | 516 kts | 216° |
| 2026-05-01 14:29 | 35.92769 | -150.96100 | 34446 ft | 516 kts | 216° |
| 2026-05-01 14:30 | 35.81056 | -151.06398 | 34439 ft | 516 kts | 216° |
| 2026-05-01 14:31 | 35.72546 | -151.13855 | 34434 ft | 516 kts | 216° |
| 2026-05-01 14:31 | 35.66838 | -151.18846 | 34438 ft | 516 kts | 216° |
| 2026-05-01 14:32 | 35.60976 | -151.23963 | 34430 ft | 516 kts | 216° |
| 2026-05-01 14:32 | 35.55106 | -151.29077 | 34437 ft | 517 kts | 216° |
| 2026-05-01 14:33 | 35.49229 | -151.34188 | 34435 ft | 517 kts | 216° |
| 2026-05-01 14:33 | 35.43352 | -151.39289 | 34433 ft | 517 kts | 216° |
| 2026-05-01 14:34 | 35.37475 | -151.44382 | 34431 ft | 517 kts | 216° |
| 2026-05-01 14:34 | 35.31640 | -151.49429 | 34433 ft | 517 kts | 216° |
| 2026-05-01 14:35 | 35.25753 | -151.54511 | 34432 ft | 517 kts | 216° |
| 2026-05-01 14:35 | 35.19876 | -151.59575 | 34431 ft | 517 kts | 216° |
| 2026-05-01 14:36 | 35.14002 | -151.64629 | 34427 ft | 517 kts | 216° |
| 2026-05-01 14:36 | 35.08134 | -151.69666 | 34428 ft | 517 kts | 216° |
| 2026-05-01 14:37 | 35.02239 | -151.74719 | 34422 ft | 517 kts | 216° |
| 2026-05-01 14:37 | 34.96341 | -151.79766 | 34422 ft | 517 kts | 216° |
| 2026-05-01 14:38 | 34.90453 | -151.84795 | 34420 ft | 517 kts | 216° |
| 2026-05-01 14:38 | 34.84553 | -151.89824 | 34420 ft | 517 kts | 215° |
| 2026-05-01 14:39 | 34.78657 | -151.94842 | 34421 ft | 517 kts | 215° |
| 2026-05-01 14:39 | 34.72833 | -151.99789 | 34421 ft | 517 kts | 215° |
| 2026-05-01 14:40 | 34.66931 | -152.04794 | 34420 ft | 517 kts | 215° |
| 2026-05-01 14:40 | 34.61096 | -152.09734 | 34413 ft | 517 kts | 215° |
| 2026-05-01 14:41 | 34.55179 | -152.14734 | 34414 ft | 517 kts | 215° |
| 2026-05-01 14:41 | 34.49263 | -152.19724 | 34413 ft | 517 kts | 215° |
| 2026-05-01 14:42 | 34.43354 | -152.24699 | 34406 ft | 517 kts | 215° |
| 2026-05-01 14:42 | 34.37478 | -152.29639 | 34409 ft | 517 kts | 215° |
| 2026-05-01 14:43 | 34.31564 | -152.34601 | 34407 ft | 517 kts | 215° |
| 2026-05-01 14:43 | 34.25719 | -152.39498 | 34406 ft | 518 kts | 215° |
| 2026-05-01 14:44 | 34.19793 | -152.44453 | 34406 ft | 518 kts | 215° |
| 2026-05-01 14:44 | 34.11035 | -152.51760 | 34397 ft | 517 kts | 215° |
| 2026-05-01 14:45 | 34.02138 | -152.59165 | 34395 ft | 517 kts | 214° |
| 2026-05-01 14:46 | 33.96209 | -152.64089 | 34396 ft | 517 kts | 214° |
| 2026-05-01 14:46 | 33.87310 | -152.71464 | 34395 ft | 518 kts | 214° |
| 2026-05-01 14:47 | 33.81415 | -152.76338 | 34395 ft | 518 kts | 214° |
| 2026-05-01 14:48 | 33.72486 | -152.83705 | 34392 ft | 518 kts | 214° |
| 2026-05-01 14:48 | 33.63594 | -152.91024 | 34387 ft | 518 kts | 214° |
| 2026-05-01 14:49 | 33.51702 | -153.00782 | 34384 ft | 517 kts | 214° |
| 2026-05-01 14:50 | 33.39807 | -153.10509 | 34379 ft | 517 kts | 214° |
| 2026-05-01 14:51 | 33.31013 | -153.17679 | 34380 ft | 517 kts | 214° |
| 2026-05-01 14:52 | 33.23082 | -153.24132 | 34377 ft | 517 kts | 214° |
| 2026-05-01 14:53 | 33.13250 | -153.32110 | 34377 ft | 517 kts | 214° |
| 2026-05-01 14:53 | 33.08287 | -153.36128 | 34378 ft | 518 kts | 214° |
| 2026-05-01 14:54 | 33.02317 | -153.40955 | 34375 ft | 518 kts | 214° |
| 2026-05-01 14:54 | 32.96341 | -153.45779 | 34374 ft | 518 kts | 214° |
| 2026-05-01 14:55 | 32.90368 | -153.50592 | 34369 ft | 518 kts | 214° |
| 2026-05-01 14:55 | 32.84405 | -153.55389 | 34367 ft | 517 kts | 214° |
| 2026-05-01 14:56 | 32.78477 | -153.60150 | 34366 ft | 517 kts | 214° |
| 2026-05-01 14:56 | 32.72718 | -153.64769 | 34365 ft | 517 kts | 214° |
| 2026-05-01 14:57 | 32.66909 | -153.69419 | 34365 ft | 517 kts | 214° |
| 2026-05-01 14:57 | 32.57951 | -153.76577 | 34364 ft | 517 kts | 214° |
| 2026-05-01 14:58 | 32.51987 | -153.81332 | 34357 ft | 517 kts | 214° |
| 2026-05-01 14:58 | 32.46018 | -153.86084 | 34357 ft | 516 kts | 214° |
| 2026-05-01 14:59 | 32.40079 | -153.90803 | 34354 ft | 517 kts | 214° |
| 2026-05-01 14:59 | 32.34087 | -153.95559 | 34353 ft | 517 kts | 214° |
| 2026-05-01 15:00 | 32.25116 | -154.02662 | 34358 ft | 517 kts | 214° |
| 2026-05-01 15:01 | 32.19194 | -154.07342 | 34356 ft | 517 kts | 214° |
| 2026-05-01 15:01 | 32.13257 | -154.12027 | 34351 ft | 517 kts | 214° |
| 2026-05-01 15:02 | 32.07264 | -154.16748 | 34350 ft | 517 kts | 214° |
| 2026-05-01 15:02 | 32.01279 | -154.21455 | 34348 ft | 517 kts | 214° |
| 2026-05-01 15:03 | 31.95287 | -154.26160 | 34350 ft | 517 kts | 214° |
| 2026-05-01 15:03 | 31.89294 | -154.30859 | 34342 ft | 517 kts | 214° |
| 2026-05-01 15:04 | 31.83540 | -154.35363 | 34344 ft | 518 kts | 213° |
| 2026-05-01 15:04 | 31.77541 | -154.40052 | 34338 ft | 517 kts | 213° |
| 2026-05-01 15:05 | 31.71541 | -154.44734 | 34346 ft | 517 kts | 213° |
| 2026-05-01 15:05 | 31.65546 | -154.49405 | 34345 ft | 517 kts | 213° |
| 2026-05-01 15:06 | 31.59543 | -154.54074 | 34349 ft | 517 kts | 213° |
| 2026-05-01 15:06 | 31.53549 | -154.58729 | 34349 ft | 516 kts | 213° |
| 2026-05-01 15:07 | 31.47592 | -154.63348 | 34339 ft | 517 kts | 213° |
| 2026-05-01 15:07 | 31.41590 | -154.67996 | 34342 ft | 517 kts | 213° |
| 2026-05-01 15:08 | 31.35592 | -154.72633 | 34342 ft | 516 kts | 213° |
| 2026-05-01 15:08 | 31.29585 | -154.77269 | 34339 ft | 516 kts | 213° |
| 2026-05-01 15:09 | 31.23635 | -154.81854 | 34338 ft | 516 kts | 213° |
| 2026-05-01 15:09 | 31.17637 | -154.86469 | 34330 ft | 516 kts | 213° |
| 2026-05-01 15:10 | 31.11636 | -154.91079 | 34332 ft | 516 kts | 213° |
| 2026-05-01 15:10 | 31.02622 | -154.97991 | 34329 ft | 517 kts | 213° |
| 2026-05-01 15:11 | 30.93198 | -155.04071 | 34337 ft | 516 kts | 206° |
| 2026-05-01 15:12 | 30.86836 | -155.07860 | 34339 ft | 517 kts | 207° |
| 2026-05-01 15:12 | 30.77224 | -155.13590 | 34336 ft | 517 kts | 206° |
| 2026-05-01 15:14 | 30.61198 | -155.23117 | 34330 ft | 517 kts | 206° |
| 2026-05-01 15:14 | 30.51629 | -155.28789 | 34331 ft | 517 kts | 206° |
| 2026-05-01 15:15 | 30.38792 | -155.36375 | 34326 ft | 517 kts | 206° |
| 2026-05-01 15:16 | 30.25951 | -155.43940 | 34319 ft | 517 kts | 206° |
| 2026-05-01 15:18 | 30.09938 | -155.53344 | 34318 ft | 517 kts | 206° |
| 2026-05-01 15:19 | 29.97086 | -155.60867 | 34319 ft | 518 kts | 206° |
| 2026-05-01 15:19 | 29.87473 | -155.66478 | 34314 ft | 518 kts | 206° |
| 2026-05-01 15:20 | 29.77828 | -155.72097 | 34312 ft | 518 kts | 206° |
| 2026-05-01 15:21 | 29.71374 | -155.75850 | 34309 ft | 518 kts | 206° |
| 2026-05-01 15:21 | 29.64972 | -155.79568 | 34302 ft | 519 kts | 206° |
| 2026-05-01 15:22 | 29.55289 | -155.85179 | 34312 ft | 519 kts | 206° |
| 2026-05-01 15:22 | 29.48907 | -155.88872 | 34302 ft | 519 kts | 206° |
| 2026-05-01 15:23 | 29.42451 | -155.92602 | 34303 ft | 518 kts | 206° |
| 2026-05-01 15:23 | 29.36043 | -155.96299 | 34296 ft | 518 kts | 206° |
| 2026-05-01 15:24 | 29.29600 | -156.00011 | 34299 ft | 518 kts | 206° |
| 2026-05-01 15:24 | 29.23154 | -156.03719 | 34295 ft | 518 kts | 206° |
| 2026-05-01 15:25 | 29.16702 | -156.07425 | 34300 ft | 519 kts | 206° |
| 2026-05-01 15:25 | 29.10238 | -156.11133 | 34294 ft | 519 kts | 206° |
| 2026-05-01 15:26 | 29.03823 | -156.14808 | 34293 ft | 519 kts | 206° |
| 2026-05-01 15:26 | 28.97358 | -156.18507 | 34289 ft | 519 kts | 206° |
| 2026-05-01 15:27 | 28.90894 | -156.22199 | 34291 ft | 519 kts | 206° |
| 2026-05-01 15:28 | 28.81192 | -156.27731 | 34292 ft | 519 kts | 206° |
| 2026-05-01 15:28 | 28.74783 | -156.31380 | 34287 ft | 519 kts | 206° |
| 2026-05-01 15:29 | 28.65077 | -156.36895 | 34288 ft | 519 kts | 206° |
| 2026-05-01 15:30 | 28.52144 | -156.44227 | 34279 ft | 519 kts | 206° |
| 2026-05-01 15:31 | 28.32783 | -156.55164 | 34279 ft | 519 kts | 206° |
| 2026-05-01 15:32 | 28.19828 | -156.62458 | 34273 ft | 519 kts | 206° |
| 2026-05-01 15:34 | 28.00446 | -156.73333 | 34266 ft | 518 kts | 206° |